Terminal Aerodrome Forecast
Issued by NWS

Home | Current Version | Previous Version | Text Only | Print | Product List | Glossary On
Versions: 1 2 3 4 5 6 7 8 9 10 11 12 13 14 15 16 17
000
FTUS43 KOAX 301700
TAFCDR
TAF
KCDR 301740Z 3018/3118 21012KT P6SM FEW100
     FM302130 20013G24KT P6SM VCTS SCT060CB BKN100
     FM310200 20012G22KT P6SM VCSH BKN060
     FM310500 19013KT P6SM BKN100
     FM311000 31008KT P6SM BKN150=

USA.gov is the U.S. government's official web portal to all federal, state and local government web resources and services.